createdAt,value
2023-05-23T00:00:01.826Z,33.50
2023-05-23T00:01:01.829Z,35.90
2023-05-23T00:02:01.894Z,39.70
2023-05-23T00:03:01.901Z,39.60
2023-05-23T00:04:02.001Z,39.90
2023-05-23T00:05:01.799Z,33.80
2023-05-23T00:06:01.888Z,33.10
2023-05-23T00:07:01.761Z,35.70
2023-05-23T00:08:01.837Z,32.20
2023-05-23T00:09:01.783Z,35.30
2023-05-23T00:10:01.784Z,35.40
2023-05-23T00:11:01.757Z,34.50
2023-05-23T00:12:01.760Z,37.20
2023-05-23T00:13:01.706Z,36.30
2023-05-23T00:14:01.715Z,35.70
2023-05-23T00:15:01.687Z,33.90
2023-05-23T00:16:01.723Z,34.90
2023-05-23T00:17:01.794Z,38.40
2023-05-23T00:18:01.693Z,36.60
2023-05-23T00:19:01.725Z,39.30
2023-05-23T00:20:01.659Z,36.70
2023-05-23T00:21:01.651Z,38.40
2023-05-23T00:22:01.793Z,38.80
2023-05-23T00:23:01.667Z,42.60
2023-05-23T00:24:01.662Z,50.80
2023-05-23T00:25:01.613Z,45.80
2023-05-23T00:26:01.641Z,45.60
2023-05-23T00:27:01.591Z,61.40
2023-05-23T00:28:01.598Z,53.20
2023-05-23T00:29:01.595Z,52.60
2023-05-23T00:30:01.594Z,43.00
2023-05-23T00:31:01.611Z,42.30
2023-05-23T00:32:01.641Z,41.60
2023-05-23T00:33:01.607Z,41.20
2023-05-23T00:34:01.555Z,40.50
2023-05-23T00:35:01.557Z,42.70
2023-05-23T00:36:01.537Z,42.90
2023-05-23T00:37:02.216Z,47.00
2023-05-23T00:38:02.471Z,38.90
2023-05-23T00:39:01.519Z,45.20
2023-05-23T00:40:01.513Z,45.20
2023-05-23T00:41:01.493Z,42.10
2023-05-23T00:42:01.495Z,43.10
2023-05-23T00:43:01.470Z,44.60
2023-05-23T00:44:01.489Z,45.40
2023-05-23T00:45:02.317Z,48.40
2023-05-23T00:46:01.874Z,49.80
2023-05-23T00:47:02.410Z,49.70
2023-05-23T00:48:01.963Z,52.50
2023-05-23T00:49:01.419Z,49.90
2023-05-23T00:50:01.551Z,52.80
2023-05-23T00:51:01.419Z,55.60
2023-05-23T00:52:02.379Z,59.30
2023-05-23T00:53:01.430Z,54.50
2023-05-23T00:54:01.431Z,59.80
2023-05-23T00:55:01.381Z,61.90
2023-05-23T00:56:01.387Z,60.20
2023-05-23T00:57:01.359Z,55.40
2023-05-23T00:58:01.379Z,52.00
2023-05-23T00:59:01.379Z,57.10
2023-05-23T01:00:01.360Z,54.50
2023-05-23T01:01:01.334Z,53.00
2023-05-23T01:02:01.406Z,53.80
2023-05-23T01:03:01.427Z,53.20
2023-05-23T01:04:01.357Z,57.30
2023-05-23T01:05:01.306Z,57.20
2023-05-23T01:06:01.302Z,55.80
2023-05-23T01:07:01.330Z,58.70
2023-05-23T01:08:01.313Z,59.60
2023-05-23T01:09:01.353Z,57.40
2023-05-23T01:10:01.375Z,58.00
2023-05-23T01:11:01.244Z,60.20
2023-05-23T01:12:01.330Z,62.10
2023-05-23T01:13:01.241Z,59.10
2023-05-23T01:14:01.247Z,65.90
2023-05-23T01:15:01.236Z,60.20
2023-05-23T01:16:02.900Z,60.70
2023-05-23T01:17:01.188Z,62.20
2023-05-23T01:18:01.272Z,61.80
2023-05-23T01:19:01.229Z,59.70
2023-05-23T01:20:01.219Z,62.80
2023-05-23T01:21:01.232Z,61.70
2023-05-23T01:22:01.166Z,60.80
2023-05-23T01:23:01.187Z,62.20
2023-05-23T01:24:01.156Z,63.90
2023-05-23T01:25:01.145Z,65.80
2023-05-23T01:26:01.245Z,59.80
2023-05-23T01:27:01.156Z,64.00
2023-05-23T01:28:01.125Z,69.00
2023-05-23T01:29:01.107Z,72.70
2023-05-23T01:30:01.151Z,68.20
2023-05-23T01:31:01.079Z,68.20
2023-05-23T01:32:01.143Z,67.70
2023-05-23T01:33:01.127Z,66.60
2023-05-23T01:34:01.087Z,65.20
2023-05-23T01:35:01.051Z,65.10
2023-05-23T01:36:01.058Z,68.00
2023-05-23T01:37:01.025Z,71.20
2023-05-23T01:38:01.049Z,64.30
2023-05-23T01:39:01.025Z,67.00
2023-05-23T01:40:01.015Z,59.70
2023-05-23T01:41:01.009Z,67.30
2023-05-23T01:42:01.104Z,67.60
2023-05-23T01:43:00.981Z,63.90
2023-05-23T01:44:01.011Z,62.60
2023-05-23T01:45:00.980Z,57.00
2023-05-23T01:46:01.065Z,58.90
2023-05-23T01:47:00.953Z,62.00
2023-05-23T01:48:00.984Z,56.10
2023-05-23T01:49:00.959Z,59.50
2023-05-23T01:50:00.937Z,64.20
2023-05-23T01:51:00.908Z,60.00
2023-05-23T01:52:00.961Z,59.30
2023-05-23T01:53:00.912Z,63.50
2023-05-23T01:54:00.896Z,61.50
2023-05-23T01:55:00.886Z,67.50
2023-05-23T01:56:00.904Z,66.30
2023-05-23T01:57:00.884Z,58.60
2023-05-23T01:58:00.974Z,60.20
2023-05-23T01:59:00.844Z,59.80
2023-05-23T02:00:00.873Z,60.30
2023-05-23T02:01:00.936Z,56.30
2023-05-23T02:02:00.836Z,62.10
2023-05-23T02:03:00.916Z,63.70
2023-05-23T02:04:00.852Z,71.60
2023-05-23T02:05:00.795Z,69.90
2023-05-23T02:06:00.829Z,67.90
2023-05-23T02:07:00.775Z,64.90
2023-05-23T02:08:00.796Z,61.50
2023-05-23T02:09:00.820Z,63.50
2023-05-23T02:10:00.775Z,58.80
2023-05-23T02:11:00.752Z,65.80
2023-05-23T02:12:00.780Z,65.60
2023-05-23T02:13:00.763Z,62.10
2023-05-23T02:14:00.816Z,68.00
2023-05-23T02:15:00.728Z,68.70
2023-05-23T02:16:00.713Z,62.70
2023-05-23T02:17:00.749Z,63.50
2023-05-23T02:18:00.746Z,64.20
2023-05-23T02:19:00.709Z,61.90
2023-05-23T02:20:00.679Z,65.80
2023-05-23T02:21:00.694Z,64.40
2023-05-23T02:22:00.696Z,66.10
2023-05-23T02:23:00.666Z,58.80
2023-05-23T02:24:00.672Z,60.10
2023-05-23T02:25:00.634Z,55.90
2023-05-23T02:26:00.752Z,56.20
2023-05-23T02:27:00.835Z,53.30
2023-05-23T02:28:00.683Z,50.00
2023-05-23T02:29:00.687Z,47.90
2023-05-23T02:30:00.693Z,43.30
2023-05-23T02:31:00.683Z,44.80
2023-05-23T02:32:00.589Z,45.00
2023-05-23T02:33:00.627Z,44.90
2023-05-23T02:34:00.614Z,47.00
2023-05-23T02:35:00.545Z,47.70
2023-05-23T02:36:00.594Z,47.90
2023-05-23T02:37:00.552Z,42.70
2023-05-23T02:38:00.562Z,44.90
2023-05-23T02:39:00.570Z,44.20
2023-05-23T02:40:00.520Z,41.60
2023-05-23T02:41:00.539Z,39.80
2023-05-23T02:42:00.563Z,45.30
2023-05-23T02:43:00.483Z,38.60
2023-05-23T02:44:00.514Z,34.90
2023-05-23T02:45:00.487Z,40.10
2023-05-23T02:46:00.615Z,37.50
2023-05-23T02:47:00.472Z,35.20
2023-05-23T02:48:00.547Z,36.50
2023-05-23T02:49:00.446Z,33.10
2023-05-23T02:50:00.430Z,38.70
2023-05-23T02:51:00.401Z,36.60
2023-05-23T02:52:00.421Z,33.80
2023-05-23T02:53:00.389Z,33.40
2023-05-23T02:54:00.412Z,35.20
2023-05-23T02:55:00.368Z,38.80
2023-05-23T02:56:00.402Z,41.50
2023-05-23T02:57:00.357Z,38.00
2023-05-23T02:58:00.374Z,38.10
2023-05-23T02:59:00.382Z,36.00
2023-05-23T03:00:00.408Z,38.80
2023-05-23T03:01:00.328Z,33.00
2023-05-23T03:02:00.441Z,37.00
2023-05-23T03:03:00.457Z,34.40
2023-05-23T03:04:00.408Z,38.20
2023-05-23T03:05:00.369Z,42.30
2023-05-23T03:06:00.313Z,46.60
2023-05-23T03:07:00.285Z,33.80
2023-05-23T03:08:00.369Z,40.40
2023-05-23T03:09:00.262Z,35.00
2023-05-23T03:10:00.237Z,36.00
2023-05-23T03:11:00.270Z,36.90
2023-05-23T03:12:00.279Z,43.40
2023-05-23T03:13:00.266Z,38.70
2023-05-23T03:14:00.209Z,47.10
2023-05-23T03:15:00.245Z,47.70
2023-05-23T03:16:00.285Z,48.60
2023-05-23T03:17:00.180Z,51.40
2023-05-23T03:18:00.300Z,41.20
2023-05-23T03:19:00.224Z,45.70
2023-05-23T03:20:00.207Z,55.80
2023-05-23T03:21:00.200Z,49.80
2023-05-23T03:22:00.153Z,48.70
2023-05-23T03:23:00.180Z,50.80
2023-05-23T03:24:00.162Z,45.90
2023-05-23T03:25:00.189Z,39.30
2023-05-23T03:26:00.165Z,34.50
2023-05-23T03:27:00.156Z,45.70
2023-05-23T03:28:00.105Z,39.40
2023-05-23T03:29:00.168Z,39.10
2023-05-23T03:30:00.107Z,43.40
2023-05-23T03:31:00.123Z,35.30
2023-05-23T03:32:00.277Z,37.90
2023-05-23T03:33:00.229Z,42.20
2023-05-23T03:34:00.175Z,47.60
2023-05-23T03:35:00.047Z,40.60
2023-05-23T03:36:00.042Z,41.20
2023-05-23T03:37:00.044Z,43.50
2023-05-23T03:38:00.068Z,47.80
2023-05-23T03:39:00.021Z,48.10
2023-05-23T03:40:00.038Z,45.20
2023-05-23T03:40:59.990Z,30.00
2023-05-23T03:41:59.983Z,32.60
2023-05-23T03:43:00.022Z,30.90
2023-05-23T03:43:59.965Z,31.50
2023-05-23T03:44:59.953Z,38.80
2023-05-23T03:45:59.976Z,28.90
2023-05-23T03:47:00.008Z,28.80
2023-05-23T03:48:00.005Z,28.80
2023-05-23T03:48:59.950Z,34.20
2023-05-23T03:50:00.042Z,34.90
2023-05-23T03:50:59.932Z,41.40
2023-05-23T03:51:59.905Z,29.90
2023-05-23T03:52:59.909Z,28.20
2023-05-23T03:53:59.894Z,27.80
2023-05-23T03:54:59.907Z,30.00
2023-05-23T03:55:59.879Z,29.30
2023-05-23T03:56:59.863Z,23.70
2023-05-23T03:57:59.857Z,24.70
2023-05-23T03:58:59.850Z,28.80
2023-05-23T03:59:59.837Z,25.00
2023-05-23T04:01:01.912Z,26.70
2023-05-23T04:01:59.921Z,28.40
2023-05-23T04:02:59.967Z,32.60
2023-05-23T04:03:59.993Z,25.70
2023-05-23T04:04:59.807Z,28.90
2023-05-23T04:05:59.893Z,31.10
2023-05-23T04:06:59.809Z,29.10
2023-05-23T04:07:59.779Z,24.90
2023-05-23T04:08:59.758Z,25.10
2023-05-23T04:09:59.757Z,25.30
2023-05-23T04:10:59.909Z,22.90
2023-05-23T04:11:59.754Z,26.10
2023-05-23T04:12:59.806Z,31.90
2023-05-23T04:13:59.724Z,31.60
2023-05-23T04:14:59.749Z,25.50
2023-05-23T04:15:59.727Z,23.50
2023-05-23T04:16:59.720Z,25.20
2023-05-23T04:17:59.802Z,23.90
2023-05-23T04:18:59.697Z,26.00
2023-05-23T04:19:59.680Z,24.90
2023-05-23T04:20:59.662Z,23.00
2023-05-23T04:21:59.775Z,25.20
2023-05-23T04:22:59.698Z,24.90
2023-05-23T04:23:59.651Z,24.40
2023-05-23T04:24:59.659Z,24.70
2023-05-23T04:25:59.625Z,28.00
2023-05-23T04:26:59.615Z,28.60
2023-05-23T04:27:59.625Z,36.30
2023-05-23T04:28:59.620Z,26.60
2023-05-23T04:29:59.640Z,22.70
2023-05-23T04:30:59.635Z,24.10
2023-05-23T04:31:59.608Z,23.80
2023-05-23T04:32:59.618Z,22.80
2023-05-23T04:33:59.578Z,20.90
2023-05-23T04:34:59.568Z,23.40
2023-05-23T04:35:59.578Z,23.60
2023-05-23T04:36:59.555Z,21.40
2023-05-23T04:37:59.626Z,21.30
2023-05-23T04:38:59.535Z,21.60
2023-05-23T04:39:59.543Z,20.40
2023-05-23T04:40:59.632Z,18.70
2023-05-23T04:41:59.547Z,18.30
2023-05-23T04:42:59.515Z,18.60
2023-05-23T04:43:59.510Z,19.70
2023-05-23T04:44:59.477Z,19.60
2023-05-23T04:45:59.532Z,20.00
2023-05-23T04:46:59.487Z,20.10
2023-05-23T04:47:59.555Z,21.40
2023-05-23T04:48:59.459Z,22.00
2023-05-23T04:49:59.457Z,22.60
2023-05-23T04:50:59.471Z,22.50
2023-05-23T04:51:59.492Z,20.80
2023-05-23T04:52:59.454Z,20.50
2023-05-23T04:53:59.499Z,18.60
2023-05-23T04:54:59.419Z,22.20
2023-05-23T04:55:59.435Z,19.20
2023-05-23T04:56:59.389Z,18.20
2023-05-23T04:57:59.441Z,18.70
2023-05-23T04:58:59.400Z,20.10
2023-05-23T04:59:59.396Z,19.40
2023-05-23T05:00:59.459Z,19.30
2023-05-23T05:01:59.367Z,19.30
2023-05-23T05:02:59.384Z,18.90
2023-05-23T05:03:59.399Z,20.50
2023-05-23T05:04:59.329Z,17.60
2023-05-23T05:05:59.339Z,18.30
2023-05-23T05:06:59.290Z,18.00
2023-05-23T05:07:59.317Z,19.50
2023-05-23T05:08:59.330Z,16.80
2023-05-23T05:10:01.078Z,17.80
2023-05-23T05:10:59.315Z,18.10
2023-05-23T05:11:59.294Z,15.70
2023-05-23T05:12:59.256Z,20.70
2023-05-23T05:13:59.294Z,17.90
2023-05-23T05:14:59.225Z,18.40
2023-05-23T05:15:59.269Z,18.70
2023-05-23T05:16:59.232Z,19.50
2023-05-23T05:17:59.222Z,14.90
2023-05-23T05:18:59.240Z,15.70
2023-05-23T05:19:59.209Z,17.50
2023-05-23T05:20:59.257Z,17.20
2023-05-23T05:21:59.173Z,15.90
2023-05-23T05:22:59.138Z,17.10
2023-05-23T05:23:59.154Z,14.70
2023-05-23T05:24:59.147Z,16.10
2023-05-23T05:25:59.241Z,15.50
2023-05-23T05:26:59.174Z,17.90
2023-05-23T05:27:59.144Z,17.50
2023-05-23T05:28:59.123Z,17.50
2023-05-23T05:29:59.123Z,16.50
2023-05-23T05:30:59.136Z,18.00
2023-05-23T05:31:59.082Z,14.70
2023-05-23T05:32:59.118Z,15.20
2023-05-23T05:33:59.105Z,15.60
2023-05-23T05:34:59.062Z,17.00
2023-05-23T05:35:59.050Z,16.60
2023-05-23T05:36:59.064Z,16.40
2023-05-23T05:37:59.047Z,19.40
2023-05-23T05:38:59.078Z,16.60
2023-05-23T05:39:59.101Z,18.30
2023-05-23T05:40:59.021Z,14.80
2023-05-23T05:41:59.110Z,16.70
2023-05-23T05:42:59.003Z,15.70
2023-05-23T05:43:59.044Z,14.30
2023-05-23T05:44:59.012Z,14.90
2023-05-23T05:45:59.014Z,15.00
2023-05-23T05:46:58.978Z,13.30
2023-05-23T05:47:59.033Z,15.60
2023-05-23T05:48:58.962Z,15.30
2023-05-23T05:49:58.936Z,13.90
2023-05-23T05:50:58.934Z,14.00
2023-05-23T05:51:58.941Z,12.80
2023-05-23T05:52:58.925Z,13.90
2023-05-23T05:53:58.955Z,14.00
2023-05-23T05:54:58.928Z,13.00
2023-05-23T05:55:58.880Z,11.10
2023-05-23T05:56:58.868Z,11.60
2023-05-23T05:57:58.987Z,11.20
2023-05-23T05:58:58.850Z,10.40
2023-05-23T05:59:58.880Z,13.10
2023-05-23T06:00:58.841Z,10.20
2023-05-23T06:01:58.897Z,10.10
2023-05-23T06:02:58.936Z,10.00
2023-05-23T06:03:59.059Z,11.40
2023-05-23T06:04:58.824Z,9.30
2023-05-23T06:05:58.822Z,10.60
2023-05-23T06:06:58.794Z,10.30
2023-05-23T06:07:58.815Z,9.60
2023-05-23T06:08:58.791Z,9.30
2023-05-23T06:09:58.796Z,10.30
2023-05-23T06:10:58.793Z,9.40
2023-05-23T06:11:58.793Z,8.20
2023-05-23T06:12:58.754Z,8.20
2023-05-23T06:13:58.827Z,10.50
2023-05-23T06:14:58.736Z,10.10
2023-05-23T06:15:58.773Z,11.30
2023-05-23T06:16:58.710Z,7.80
2023-05-23T06:17:58.826Z,9.20
2023-05-23T06:18:58.739Z,9.40
2023-05-23T06:19:58.707Z,10.30
2023-05-23T06:20:58.673Z,9.10
2023-05-23T06:21:58.676Z,8.40
2023-05-23T06:22:58.664Z,8.80
2023-05-23T06:23:58.824Z,7.10
2023-05-23T06:24:59.347Z,7.30
2023-05-23T06:25:58.697Z,6.20
2023-05-23T06:26:58.661Z,6.40
2023-05-23T06:27:58.632Z,8.30
2023-05-23T06:28:58.589Z,6.30
2023-05-23T06:29:58.602Z,7.80
2023-05-23T06:30:58.601Z,8.60
2023-05-23T06:31:58.642Z,7.50
2023-05-23T06:32:58.641Z,7.70
2023-05-23T06:33:58.615Z,5.80
2023-05-23T06:34:58.544Z,6.70
2023-05-23T06:35:58.604Z,6.70
2023-05-23T06:36:58.560Z,5.60
2023-05-23T06:37:58.526Z,5.70
2023-05-23T06:38:58.564Z,5.50
2023-05-23T06:39:58.573Z,6.00
2023-05-23T06:40:58.481Z,5.30
2023-05-23T06:41:58.496Z,5.90
2023-05-23T06:42:58.485Z,6.20
2023-05-23T06:43:58.498Z,5.30
2023-05-23T06:44:58.484Z,5.60
2023-05-23T06:45:58.596Z,5.60
2023-05-23T06:46:58.487Z,6.20
2023-05-23T06:47:58.585Z,5.50
2023-05-23T06:49:13.308Z,5.10
2023-05-23T06:49:59.462Z,6.10
2023-05-23T06:50:58.493Z,5.90
2023-05-23T06:52:05.453Z,5.80
2023-05-23T06:52:58.406Z,7.20
2023-05-23T06:53:58.420Z,6.20
2023-05-23T06:54:58.397Z,5.80
2023-05-23T06:55:58.412Z,5.70
2023-05-23T06:56:58.372Z,6.10
2023-05-23T06:57:58.396Z,6.00
2023-05-23T06:58:58.352Z,6.90
2023-05-23T06:59:58.372Z,6.10
2023-05-23T07:00:58.380Z,4.80
2023-05-23T07:01:58.423Z,5.00
2023-05-23T07:02:58.342Z,6.40
2023-05-23T07:03:58.343Z,6.50
2023-05-23T07:04:58.328Z,5.70
2023-05-23T07:05:58.365Z,5.90
2023-05-23T07:06:58.294Z,5.30
2023-05-23T07:07:58.293Z,5.60
2023-05-23T07:08:58.265Z,5.50
2023-05-23T07:09:58.278Z,6.10
2023-05-23T07:10:58.277Z,6.40
2023-05-23T07:11:58.271Z,6.90
2023-05-23T07:12:58.246Z,6.40
2023-05-23T07:13:58.257Z,6.40
2023-05-23T07:14:58.227Z,6.60
2023-05-23T07:15:58.256Z,6.70
2023-05-23T07:16:58.285Z,6.20
2023-05-23T07:17:58.279Z,6.90
2023-05-23T07:18:58.236Z,7.50
2023-05-23T07:19:58.197Z,6.30
2023-05-23T07:20:58.203Z,7.30
2023-05-23T07:21:58.185Z,6.70
2023-05-23T07:22:58.168Z,9.70
2023-05-23T07:23:58.175Z,7.00
2023-05-23T07:24:58.177Z,6.00
2023-05-23T07:26:02.480Z,6.90
2023-05-23T07:26:58.112Z,6.00
2023-05-23T07:27:58.162Z,5.90
2023-05-23T07:28:58.134Z,6.10
2023-05-23T07:29:58.135Z,6.40
2023-05-23T07:30:58.221Z,6.20
2023-05-23T07:31:58.111Z,6.50
2023-05-23T07:32:58.192Z,5.80
2023-05-23T07:33:58.570Z,7.00
2023-05-23T07:34:58.083Z,6.90
2023-05-23T07:35:58.092Z,5.30
2023-05-23T07:36:58.052Z,5.70
2023-05-23T07:37:58.074Z,5.70
2023-05-23T07:38:58.021Z,7.00
2023-05-23T07:39:58.048Z,6.00
2023-05-23T07:41:09.881Z,6.00
2023-05-23T07:41:59.061Z,6.00
2023-05-23T07:42:57.993Z,5.40
2023-05-23T07:43:57.994Z,6.50
2023-05-23T07:44:58.002Z,6.50
2023-05-23T07:45:57.983Z,7.10
2023-05-23T07:46:58.019Z,5.40
2023-05-23T07:47:58.038Z,5.30
2023-05-23T07:48:57.985Z,4.90
2023-05-23T07:49:57.975Z,6.10
2023-05-23T07:50:57.942Z,6.80
2023-05-23T07:51:57.953Z,7.00
2023-05-23T07:52:57.904Z,5.50
2023-05-23T07:53:57.935Z,5.20
2023-05-23T07:54:57.932Z,5.50
2023-05-23T07:55:57.902Z,5.40
2023-05-23T07:56:57.887Z,5.70
2023-05-23T07:57:57.899Z,4.60
2023-05-23T07:58:57.882Z,5.80
2023-05-23T07:59:57.898Z,5.50
2023-05-23T08:00:57.853Z,5.80
2023-05-23T08:01:57.867Z,4.90
2023-05-23T08:02:57.873Z,5.20
2023-05-23T08:03:57.870Z,5.20
2023-05-23T08:04:57.802Z,6.80
2023-05-23T08:05:57.836Z,5.20
2023-05-23T08:07:04.991Z,6.90
2023-05-23T08:07:58.816Z,5.60
2023-05-23T08:08:57.802Z,6.40
2023-05-23T08:09:57.800Z,5.60
2023-05-23T08:10:57.779Z,5.50
2023-05-23T08:11:57.796Z,5.00
2023-05-23T08:12:57.744Z,5.10
2023-05-23T08:13:59.432Z,5.80
2023-05-23T08:14:57.731Z,5.60
2023-05-23T08:15:57.792Z,5.60
2023-05-23T08:16:57.867Z,6.20
2023-05-23T08:17:57.765Z,5.10
2023-05-23T08:18:57.748Z,6.70
2023-05-23T08:19:57.748Z,6.60
2023-05-23T08:20:57.670Z,6.00
2023-05-23T08:21:57.709Z,7.00
2023-05-23T08:22:57.673Z,6.50
2023-05-23T08:23:57.664Z,7.80
2023-05-23T08:24:57.675Z,7.10
2023-05-23T08:25:57.725Z,6.00
2023-05-23T08:26:57.634Z,5.90
2023-05-23T08:27:57.682Z,6.40
2023-05-23T08:28:57.616Z,5.80
2023-05-23T08:29:57.652Z,7.20
2023-05-23T08:30:57.632Z,6.20
2023-05-23T08:31:57.673Z,6.00
2023-05-23T08:32:57.614Z,6.20
2023-05-23T08:33:57.601Z,7.00
2023-05-23T08:34:57.579Z,7.30
2023-05-23T08:35:57.603Z,7.00
2023-05-23T08:36:57.569Z,6.70
2023-05-23T08:37:57.595Z,5.90
2023-05-23T08:38:57.525Z,6.50
2023-05-23T08:39:57.524Z,5.80
2023-05-23T08:40:57.519Z,7.20
2023-05-23T08:41:57.525Z,8.00
2023-05-23T08:42:57.576Z,5.90
2023-05-23T08:43:57.558Z,7.30
2023-05-23T08:44:57.507Z,6.80
2023-05-23T08:45:57.532Z,6.80
2023-05-23T08:46:57.497Z,6.20
2023-05-23T08:47:57.565Z,7.00
2023-05-23T08:48:57.479Z,6.90
2023-05-23T08:49:57.453Z,6.90
2023-05-23T08:50:57.445Z,7.20
2023-05-23T08:51:57.438Z,6.50
2023-05-23T08:52:57.460Z,5.90
2023-05-23T08:53:57.601Z,7.50
2023-05-23T08:54:57.405Z,6.40
2023-05-23T08:55:57.444Z,6.30
2023-05-23T08:56:57.405Z,6.40
2023-05-23T08:57:57.382Z,6.40
2023-05-23T08:58:57.383Z,7.00
2023-05-23T08:59:57.380Z,8.10
2023-05-23T09:00:57.392Z,7.90
2023-05-23T09:01:57.388Z,6.70
2023-05-23T09:02:57.456Z,8.10
2023-05-23T09:03:57.369Z,8.80
2023-05-23T09:04:57.337Z,8.60
2023-05-23T09:05:57.460Z,7.50
2023-05-23T09:06:57.293Z,6.50
2023-05-23T09:07:57.322Z,7.10
2023-05-23T09:08:57.286Z,7.70
2023-05-23T09:09:57.356Z,8.80
2023-05-23T09:10:57.272Z,8.20
2023-05-23T09:11:57.285Z,7.20
2023-05-23T09:12:57.230Z,6.60
2023-05-23T09:13:57.273Z,7.20
2023-05-23T09:14:57.215Z,7.60
2023-05-23T09:15:57.284Z,7.30
2023-05-23T09:16:57.210Z,7.90
2023-05-23T09:17:57.323Z,7.10
2023-05-23T09:18:57.245Z,7.50
2023-05-23T09:19:57.222Z,6.70
2023-05-23T09:20:57.182Z,6.90
2023-05-23T09:21:57.194Z,7.10
2023-05-23T09:22:57.165Z,7.20
2023-05-23T09:23:57.188Z,6.90
2023-05-23T09:24:57.165Z,7.20
2023-05-23T09:25:57.183Z,9.10
2023-05-23T09:26:57.130Z,7.90
2023-05-23T09:27:57.186Z,7.30
2023-05-23T09:28:57.107Z,7.20
2023-05-23T09:29:57.150Z,7.50
2023-05-23T09:30:57.088Z,6.60
2023-05-23T09:31:57.250Z,7.50
2023-05-23T09:32:57.169Z,7.20
2023-05-23T09:33:57.076Z,7.10
2023-05-23T09:34:57.131Z,6.50
2023-05-23T09:35:57.064Z,6.90
2023-05-23T09:36:57.062Z,6.40
2023-05-23T09:37:57.071Z,7.80
2023-05-23T09:38:57.041Z,8.10
2023-05-23T09:39:57.087Z,6.90
2023-05-23T09:40:57.017Z,7.80
2023-05-23T09:41:57.020Z,7.40
2023-05-23T09:42:57.033Z,6.60
2023-05-23T09:43:56.994Z,7.40
2023-05-23T09:44:57.002Z,7.00
2023-05-23T09:45:56.985Z,8.10
2023-05-23T09:46:56.981Z,6.70
2023-05-23T09:47:56.979Z,6.30
2023-05-23T09:48:56.971Z,9.30
2023-05-23T09:49:56.953Z,7.10
2023-05-23T09:50:56.964Z,6.70
2023-05-23T09:51:56.928Z,7.50
2023-05-23T09:52:56.891Z,6.50
2023-05-23T09:53:56.913Z,6.10
2023-05-23T09:54:56.878Z,6.10
2023-05-23T09:55:56.921Z,6.40
2023-05-23T09:56:57.175Z,6.00
2023-05-23T09:57:56.885Z,6.20
2023-05-23T09:58:56.899Z,7.50
2023-05-23T09:59:56.884Z,6.30
2023-05-23T10:00:56.867Z,6.80
2023-05-23T10:01:56.855Z,7.00
2023-05-23T10:02:56.887Z,6.60
2023-05-23T10:03:59.606Z,7.10
2023-05-23T10:04:56.817Z,5.50
2023-05-23T10:05:56.818Z,6.00
2023-05-23T10:06:56.776Z,6.30
2023-05-23T10:07:56.796Z,5.30
2023-05-23T10:08:56.772Z,7.60
2023-05-23T10:09:58.906Z,8.50
2023-05-23T10:10:56.847Z,5.50
2023-05-23T10:11:56.760Z,5.60
2023-05-23T10:12:56.732Z,5.40
2023-05-23T10:13:56.890Z,5.80
2023-05-23T10:14:56.737Z,6.60
2023-05-23T10:15:57.641Z,7.60
2023-05-23T10:16:56.737Z,6.10
2023-05-23T10:17:56.784Z,6.10
2023-05-23T10:18:56.786Z,6.50
2023-05-23T10:19:56.700Z,6.30
2023-05-23T10:20:56.663Z,6.20
2023-05-23T10:21:56.713Z,7.10
2023-05-23T10:22:56.648Z,5.00
2023-05-23T10:23:56.686Z,5.40
2023-05-23T10:24:56.631Z,6.40
2023-05-23T10:25:56.687Z,4.90
2023-05-23T10:26:56.604Z,5.30
2023-05-23T10:27:56.620Z,4.90
2023-05-23T10:28:56.594Z,5.90
2023-05-23T10:29:56.601Z,4.90
2023-05-23T10:30:56.677Z,5.90
2023-05-23T10:31:56.606Z,5.50
2023-05-23T10:32:56.596Z,4.50
2023-05-23T10:33:56.590Z,5.50
2023-05-23T10:34:56.560Z,5.00
2023-05-23T10:35:56.572Z,4.50
2023-05-23T10:36:56.529Z,6.00
2023-05-23T10:37:56.551Z,5.30
2023-05-23T10:38:56.500Z,7.90
2023-05-23T10:39:56.513Z,5.50
2023-05-23T10:40:56.516Z,5.50
2023-05-23T10:41:56.528Z,6.20
2023-05-23T10:42:56.491Z,5.50
2023-05-23T10:43:56.494Z,4.80
2023-05-23T10:44:56.492Z,5.00
2023-05-23T10:45:56.528Z,5.60
2023-05-23T10:46:56.495Z,6.00
2023-05-23T10:47:56.455Z,5.10
2023-05-23T10:48:56.445Z,5.90
2023-05-23T10:49:56.448Z,4.40
2023-05-23T10:50:56.435Z,5.80
2023-05-23T10:51:56.439Z,5.70
2023-05-23T10:52:56.434Z,5.00
2023-05-23T10:53:56.407Z,5.50
2023-05-23T10:54:56.426Z,5.40
2023-05-23T10:55:56.410Z,4.70
2023-05-23T10:56:56.372Z,5.10
2023-05-23T10:57:56.363Z,5.40
2023-05-23T10:58:56.387Z,7.40
2023-05-23T10:59:56.384Z,4.60
2023-05-23T11:00:56.340Z,4.50
2023-05-23T11:01:56.561Z,4.40
2023-05-23T11:02:56.432Z,4.00
2023-05-23T11:03:56.714Z,4.20
2023-05-23T11:04:56.311Z,3.70
2023-05-23T11:05:56.320Z,4.20
2023-05-23T11:06:56.309Z,4.10
2023-05-23T11:07:56.315Z,4.00
2023-05-23T11:08:56.262Z,5.30
2023-05-23T11:09:56.289Z,3.90
2023-05-23T11:10:56.298Z,4.40
2023-05-23T11:11:56.285Z,2.70
2023-05-23T11:12:56.272Z,3.10
2023-05-23T11:13:56.264Z,2.80
2023-05-23T11:14:56.291Z,3.10
2023-05-23T11:15:56.294Z,3.80
2023-05-23T11:16:56.287Z,3.30
2023-05-23T11:17:56.287Z,2.20
2023-05-23T11:18:56.279Z,2.70
2023-05-23T11:19:56.191Z,2.30
2023-05-23T11:20:56.183Z,3.50
2023-05-23T11:21:56.196Z,2.00
2023-05-23T11:22:56.208Z,3.10
2023-05-23T11:23:56.167Z,2.80
2023-05-23T11:24:56.151Z,2.20
2023-05-23T11:25:56.133Z,2.10
2023-05-23T11:26:56.135Z,2.10
2023-05-23T11:27:56.154Z,1.70
2023-05-23T11:28:56.106Z,2.20
2023-05-23T11:29:56.130Z,3.90
2023-05-23T11:30:56.100Z,2.40
2023-05-23T11:31:56.132Z,2.70
2023-05-23T11:32:56.206Z,2.60
2023-05-23T11:33:56.117Z,2.00
2023-05-23T11:34:56.053Z,2.50
2023-05-23T11:35:56.076Z,2.30
2023-05-23T11:36:56.042Z,1.40
2023-05-23T11:37:56.068Z,2.50
2023-05-23T11:38:56.032Z,2.40
2023-05-23T11:39:56.067Z,3.20
2023-05-23T11:40:56.023Z,1.80
2023-05-23T11:41:56.033Z,2.90
2023-05-23T11:42:56.016Z,1.30
2023-05-23T11:43:56.021Z,1.90
2023-05-23T11:44:55.974Z,1.50
2023-05-23T11:45:56.024Z,1.40
2023-05-23T11:46:55.981Z,1.70
2023-05-23T11:47:56.050Z,2.00
2023-05-23T11:48:55.973Z,2.00
2023-05-23T11:49:55.957Z,3.10
2023-05-23T11:50:55.922Z,5.80
2023-05-23T11:51:55.943Z,3.50
2023-05-23T11:52:55.916Z,4.30
2023-05-23T11:53:55.930Z,1.80
2023-05-23T11:54:57.982Z,2.20
2023-05-23T11:55:55.921Z,1.40
2023-05-23T11:56:55.876Z,1.70
2023-05-23T11:57:55.909Z,1.50
2023-05-23T11:58:55.918Z,1.90
2023-05-23T11:59:55.872Z,1.70
2023-05-23T12:00:55.857Z,2.50
2023-05-23T12:01:55.855Z,2.60
2023-05-23T12:02:55.909Z,1.80
2023-05-23T12:03:56.072Z,2.40
2023-05-23T12:04:55.905Z,2.50
2023-05-23T12:05:55.824Z,3.20
2023-05-23T12:06:55.835Z,2.00
2023-05-23T12:07:55.836Z,4.10
2023-05-23T12:08:55.790Z,2.30
2023-05-23T12:09:55.836Z,2.30
2023-05-23T12:10:55.771Z,2.40
2023-05-23T12:11:55.776Z,2.60
2023-05-23T12:12:55.735Z,2.00
2023-05-23T12:13:55.757Z,2.20
2023-05-23T12:14:55.719Z,2.80
2023-05-23T12:15:55.765Z,2.50
2023-05-23T12:16:55.708Z,3.90
2023-05-23T12:17:55.758Z,3.70
2023-05-23T12:18:55.735Z,3.60
2023-05-23T12:19:55.713Z,2.30
2023-05-23T12:20:55.719Z,2.30
2023-05-23T12:21:55.692Z,3.30
2023-05-23T12:22:55.681Z,1.90
2023-05-23T12:23:55.732Z,3.00
2023-05-23T12:24:55.659Z,3.20
2023-05-23T12:25:55.688Z,3.90
2023-05-23T12:26:55.666Z,3.50
2023-05-23T12:27:55.680Z,3.20
2023-05-23T12:28:55.606Z,3.90
2023-05-23T12:29:55.660Z,4.00
2023-05-23T12:30:55.629Z,3.20
2023-05-23T12:31:55.748Z,3.80
2023-05-23T12:32:55.612Z,3.90
2023-05-23T12:33:55.630Z,4.00
2023-05-23T12:34:55.590Z,4.30
2023-05-23T12:35:55.615Z,3.20
2023-05-23T12:37:06.413Z,3.40
2023-05-23T12:37:56.581Z,4.20
2023-05-23T12:38:55.560Z,4.60
2023-05-23T12:39:55.562Z,4.10
2023-05-23T12:40:55.516Z,5.10
2023-05-23T12:41:55.565Z,4.90
2023-05-23T12:42:55.565Z,5.40
2023-05-23T12:43:55.527Z,5.10
2023-05-23T12:44:55.501Z,5.50
2023-05-23T12:45:55.517Z,6.40
2023-05-23T12:46:55.518Z,6.30
2023-05-23T12:47:55.562Z,6.50
2023-05-23T12:48:55.472Z,6.20
2023-05-23T12:49:55.465Z,6.10
2023-05-23T12:50:55.463Z,6.70
2023-05-23T12:51:55.470Z,7.00
2023-05-23T12:52:55.453Z,6.60
2023-05-23T12:53:55.452Z,7.50
2023-05-23T12:54:55.457Z,5.90
2023-05-23T12:55:55.424Z,6.30
2023-05-23T12:56:55.437Z,6.30
2023-05-23T12:57:55.463Z,5.70
2023-05-23T12:58:55.390Z,6.90
2023-05-23T12:59:55.424Z,6.50
2023-05-23T13:00:55.466Z,8.10
2023-05-23T13:01:55.382Z,8.80
2023-05-23T13:02:55.429Z,8.10
2023-05-23T13:03:55.403Z,6.90
2023-05-23T13:04:55.339Z,6.50
2023-05-23T13:05:55.376Z,11.00